Time;durP1;ratioP1;P1;durP2;ratioP2;P2;SDS_P1;SDS_P2;PMS_P1;PMS_P2;Temp;Humidity;BMP_temperature;BMP_pressure;BME280_temperature;BME280_humidity;BME280_pressure;Samples;Min_cycle;Max_cycle;Signal;HPM_P1;HPM_P2
2023/06/07 00:00:00;;;;;;;17.92;7.15;;;;;;;-146.27;79.85;82677.47;5032374;28;20044;-68
2023/06/07 00:02:26;;;;;;;15.38;7.32;;;;;;;-146.27;79.19;82721.69;5029075;28;20044;-68
2023/06/07 00:04:51;;;;;;;14.10;6.30;;;;;;;-146.27;78.47;82685.50;5031871;28;20021;-67
2023/06/07 00:07:18;;;;;;;9.45;6.40;;;;;;;-146.27;78.58;82609.19;5030926;28;20076;-68
2023/06/07 00:09:43;;;;;;;16.85;7.03;;;;;;;-146.27;78.37;82681.50;5014880;28;20076;-68
2023/06/07 00:12:10;;;;;;;15.50;6.85;;;;;;;-146.27;78.65;82673.47;5029276;28;20025;-67
2023/06/07 00:14:36;;;;;;;13.98;7.15;;;;;;;-146.27;78.21;82665.44;5029585;28;20090;-67
2023/06/07 00:17:02;;;;;;;14.13;6.78;;;;;;;-146.27;78.55;82659.41;5031915;28;20021;-67
2023/06/07 00:19:29;;;;;;;14.98;6.30;;;;;;;-146.27;79.10;82709.63;5031480;28;20032;-67
2023/06/07 00:21:57;;;;;;;15.13;6.38;;;;;;;-146.27;78.75;82711.63;5029644;28;20036;-68
2023/06/07 00:24:23;;;;;;;18.40;7.10;;;;;;;-146.27;78.82;82669.44;5027366;28;20029;-67
2023/06/07 00:26:49;;;;;;;16.80;6.88;;;;;;;-146.27;79.43;82701.59;5030328;28;20044;-68
2023/06/07 00:29:15;;;;;;;14.63;6.38;;;;;;;-146.27;79.79;82755.84;5027486;28;20025;-67
2023/06/07 00:31:47;;;;;;;16.67;6.68;;;;;;;-146.27;79.25;82745.78;5029881;28;20025;-68
2023/06/07 00:34:12;;;;;;;15.45;6.70;;;;;;;-146.27;78.97;82701.59;5029070;28;20032;-68
2023/06/07 00:36:37;;;;;;;14.15;6.50;;;;;;;-146.27;79.14;82665.44;5031459;28;20541;-68
2023/06/07 00:39:03;;;;;;;15.30;6.82;;;;;;;-146.27;80.21;82687.53;5029791;28;20037;-68
2023/06/07 00:41:28;;;;;;;19.00;6.30;;;;;;;-146.27;80.22;82741.78;5011658;28;20087;-68
2023/06/07 00:43:54;;;;;;;17.60;6.32;;;;;;;-146.27;78.95;82749.81;5014824;28;20072;-68
2023/06/07 00:46:24;;;;;;;18.73;7.97;;;;;;;-146.27;79.82;82749.81;5026241;28;20053;-68
2023/06/07 00:48:51;;;;;;;17.33;6.70;;;;;;;-146.27;80.16;82773.91;5015571;28;20024;-67
2023/06/07 00:51:17;;;;;;;11.98;6.90;;;;;;;-146.27;80.63;82787.97;5030798;28;20397;-67
2023/06/07 00:53:47;;;;;;;15.52;6.95;;;;;;;-146.27;80.72;82761.84;5027216;28;20025;-68
2023/06/07 00:56:12;;;;;;;14.50;6.93;;;;;;;-146.27;80.80;82798.03;5030578;28;20424;-68
2023/06/07 00:58:38;;;;;;;16.48;6.82;;;;;;;-146.27;80.70;82785.97;5028462;28;20029;-67
2023/06/07 01:01:05;;;;;;;19.67;7.28;;;;;;;-146.27;80.45;82794.00;5030052;28;20033;-67
2023/06/07 01:03:34;;;;;;;15.27;7.05;;;;;;;-146.27;81.96;82800.03;5028244;28;20097;-68
2023/06/07 01:06:02;;;;;;;13.55;8.20;;;;;;;-146.27;81.21;82769.91;5029876;28;20057;-67
2023/06/07 01:08:28;;;;;;;17.27;6.68;;;;;;;-146.27;81.19;82822.13;5030091;28;20048;-68
2023/06/07 01:10:53;;;;;;;16.75;6.20;;;;;;;-146.27;81.43;82822.13;5031002;28;20388;-67
2023/06/07 01:13:19;;;;;;;15.65;6.85;;;;;;;-146.27;81.38;82834.19;5029111;28;20087;-66
2023/06/07 01:15:45;;;;;;;10.23;6.78;;;;;;;-146.27;81.83;82802.03;5029640;28;20029;-66
2023/06/07 01:18:11;;;;;;;14.07;6.82;;;;;;;-146.27;82.29;82862.31;5028389;28;20025;-67
2023/06/07 01:20:39;;;;;;;19.55;7.72;;;;;;;-146.27;82.38;82858.28;5031642;28;20037;-66
2023/06/07 01:23:07;;;;;;;18.95;6.50;;;;;;;-146.27;82.09;82777.94;5043761;28;20025;-67
2023/06/07 01:25:33;;;;;;;11.73;7.30;;;;;;;-146.27;81.84;82810.06;5029936;28;20041;-67
2023/06/07 01:28:00;;;;;;;14.68;7.32;;;;;;;-146.27;81.77;82862.31;5026816;28;20021;-67
2023/06/07 01:30:31;;;;;;;15.20;6.65;;;;;;;-146.27;82.08;82834.19;5029764;28;20033;-68
2023/06/07 01:32:57;;;;;;;22.10;6.78;;;;;;;-146.27;82.74;82834.19;5018884;28;20429;-68
2023/06/07 01:35:23;;;;;;;14.95;7.78;;;;;;;-146.27;81.65;82814.09;5030113;28;20037;-67
2023/06/07 01:37:48;;;;;;;15.15;6.47;;;;;;;-146.27;82.81;82775.91;5029640;28;20458;-67
2023/06/07 01:40:15;;;;;;;13.48;6.28;;;;;;;-146.27;82.11;82866.31;5030204;28;20028;-67
2023/06/07 01:42:41;;;;;;;16.80;6.68;;;;;;;-146.27;81.92;82820.13;5026677;28;20026;-67
2023/06/07 01:45:08;;;;;;;18.25;6.97;;;;;;;-146.27;82.36;82886.41;5029684;28;20079;-68
2023/06/07 01:47:37;;;;;;;14.98;6.75;;;;;;;-146.27;83.81;82990.88;5037073;28;20024;-68
2023/06/07 01:50:02;;;;;;;17.33;7.28;;;;;;;-146.27;82.64;82906.50;5028628;28;20026;-67
2023/06/07 01:52:28;;;;;;;11.52;6.47;;;;;;;-146.27;82.89;82912.53;5030504;28;20531;-68
2023/06/07 01:54:55;;;;;;;12.48;6.50;;;;;;;-146.27;82.41;82918.56;5030241;28;20021;-68
2023/06/07 01:58:10;;;;;;;15.93;6.75;;;;;;;-146.27;82.60;82890.44;5025874;28;20389;-68
2023/06/07 02:00:51;;;;;;;11.57;6.35;;;;;;;-146.27;83.58;82894.47;5026007;28;20467;-67
2023/06/07 02:03:33;;;;;;;13.98;6.93;;;;;;;-146.27;83.45;82866.31;5027440;28;20425;-67
2023/06/07 02:06:06;;;;;;;14.20;7.13;;;;;;;-146.27;83.18;82902.50;5027134;28;20371;-67
2023/06/07 02:08:36;;;;;;;18.38;7.47;;;;;;;-146.27;83.41;82910.53;5021341;28;20557;-68
2023/06/07 02:11:02;;;;;;;18.60;7.05;;;;;;;-146.27;83.70;82894.47;5011228;28;20076;-67
2023/06/07 02:13:32;;;;;;;15.10;6.50;;;;;;;-146.27;83.47;82888.44;5027356;28;20065;-67
2023/06/07 02:15:57;;;;;;;21.90;6.32;;;;;;;-146.27;83.47;82874.38;5026871;28;20396;-69
2023/06/07 02:18:24;;;;;;;14.75;6.40;;;;;;;-146.27;82.58;82894.47;5030032;28;20025;-67
2023/06/07 02:20:52;;;;;;;19.05;6.50;;;;;;;-146.27;82.98;82854.28;5029515;28;20545;-67
2023/06/07 02:23:17;;;;;;;22.67;7.10;;;;;;;-146.27;82.66;82862.31;5028925;28;20567;-68
2023/06/07 02:25:43;;;;;;;12.68;6.30;;;;;;;-146.27;83.29;82844.22;5029677;28;20040;-68
2023/06/07 02:28:08;;;;;;;13.32;6.15;;;;;;;-146.27;82.80;82878.38;5030186;28;20420;-68
2023/06/07 02:30:34;;;;;;;10.60;6.18;;;;;;;-146.27;83.37;82894.47;5026248;28;20045;-67
2023/06/07 02:33:00;;;;;;;13.38;5.65;;;;;;;-146.27;82.72;82876.38;5027839;28;20144;-66
2023/06/07 02:35:26;;;;;;;16.80;6.55;;;;;;;-146.27;83.46;82864.31;5026935;28;20025;-69
2023/06/07 02:37:52;;;;;;;14.55;5.75;;;;;;;-146.27;83.15;82842.22;5025598;28;20026;-68
2023/06/07 02:40:18;;;;;;;16.10;6.90;;;;;;;-146.27;82.85;82882.41;5014486;28;20104;-67
2023/06/07 02:42:45;;;;;;;20.33;6.57;;;;;;;-146.27;83.06;82840.22;5026878;28;20033;-69
2023/06/07 02:45:11;;;;;;;12.57;6.22;;;;;;;-146.27;82.88;82822.13;5032980;28;20103;-68
2023/06/07 02:47:36;;;;;;;12.45;5.93;;;;;;;-146.27;82.66;82858.28;5024756;28;20478;-68
2023/06/07 02:50:02;;;;;;;11.15;5.90;;;;;;;-146.27;82.89;82836.19;5031213;28;20036;-68
2023/06/07 02:52:27;;;;;;;15.93;7.13;;;;;;;-146.27;83.15;82838.19;5020281;28;20695;-68
2023/06/07 02:54:53;;;;;;;14.05;5.70;;;;;;;-146.27;83.57;82838.19;5033439;28;20488;-67
2023/06/07 02:57:18;;;;;;;13.32;6.20;;;;;;;-146.27;83.53;82830.16;5033090;28;20017;-69
2023/06/07 02:59:44;;;;;;;12.50;5.38;;;;;;;-146.27;82.93;82862.31;5033123;28;20036;-68
2023/06/07 03:02:10;;;;;;;16.98;5.38;;;;;;;-146.27;82.94;82846.25;5033052;28;20388;-67
2023/06/07 03:04:38;;;;;;;14.95;6.32;;;;;;;-146.27;83.28;82834.19;5032645;28;20104;-68
2023/06/07 03:07:05;;;;;;;12.07;5.47;;;;;;;-146.27;83.41;82854.28;5021267;28;20040;-67
2023/06/07 03:09:30;;;;;;;17.80;6.53;;;;;;;-146.27;83.40;82830.16;5031416;28;20045;-67
2023/06/07 03:11:55;;;;;;;10.60;6.05;;;;;;;-146.27;84.24;82874.38;5033511;28;20435;-67
2023/06/07 03:14:21;;;;;;;20.38;6.40;;;;;;;-146.27;83.75;82866.31;5033118;28;20501;-69
2023/06/07 03:16:47;;;;;;;16.80;6.47;;;;;;;-146.27;83.44;82818.13;5032528;28;20772;-68
2023/06/07 03:19:14;;;;;;;16.30;6.35;;;;;;;-146.27;83.57;82806.06;5032809;28;20056;-67
2023/06/07 03:21:40;;;;;;;18.70;6.00;;;;;;;-146.27;83.74;82836.19;5033559;28;20112;-67
2023/06/07 03:24:06;;;;;;;13.38;6.00;;;;;;;-146.27;84.21;82886.41;5030981;28;20152;-68
2023/06/07 03:26:31;;;;;;;13.07;5.93;;;;;;;-146.27;84.13;82862.31;5032434;28;20033;-66
2023/06/07 03:28:57;;;;;;;12.65;6.03;;;;;;;-146.27;84.57;82882.41;5032038;28;20028;-68
2023/06/07 03:31:23;;;;;;;14.48;5.82;;;;;;;-146.27;84.09;82846.25;5027236;28;20025;-68
2023/06/07 03:33:48;;;;;;;14.25;6.18;;;;;;;-146.27;83.88;82874.38;5032285;28;20477;-68
2023/06/07 03:36:20;;;;;;;22.38;6.53;;;;;;;-146.27;84.59;82842.22;5033460;28;20029;-68
2023/06/07 03:38:46;;;;;;;18.92;6.35;;;;;;;-146.27;85.49;82890.44;5032917;28;20040;-67
2023/06/07 03:41:13;;;;;;;16.30;5.97;;;;;;;-146.27;84.89;82850.25;5013157;28;20021;-68
2023/06/07 03:43:39;;;;;;;10.63;6.28;;;;;;;-146.27;84.46;82856.28;5023539;28;20482;-68
2023/06/07 03:46:04;;;;;;;17.90;5.43;;;;;;;-146.27;84.38;82860.31;5030009;28;20025;-68
2023/06/07 03:48:29;;;;;;;15.60;5.97;;;;;;;-146.27;84.68;82767.88;5022352;28;20060;-67
2023/06/07 03:50:55;;;;;;;14.35;5.70;;;;;;;-146.27;84.74;82830.16;5029694;28;20500;-68
2023/06/07 03:53:20;;;;;;;14.48;5.40;;;;;;;-146.27;83.79;82810.06;5030070;28;20069;-67
2023/06/07 03:55:48;;;;;;;22.33;6.32;;;;;;;-146.27;83.77;82850.25;5031686;28;20361;-69
2023/06/07 03:58:18;;;;;;;14.82;5.85;;;;;;;-146.27;84.24;82834.19;5032082;28;20025;-68
2023/06/07 04:00:44;;;;;;;15.50;5.28;;;;;;;-146.27;85.08;82848.25;5032261;28;20653;-67
2023/06/07 04:03:09;;;;;;;16.88;6.07;;;;;;;-146.27;84.27;82850.25;5036151;28;20032;-67
2023/06/07 04:05:38;;;;;;;11.82;5.93;;;;;;;-146.27;84.72;82842.22;5030777;28;20025;-67
2023/06/07 04:08:05;;;;;;;15.30;5.82;;;;;;;-146.27;84.51;82806.06;5030960;28;20025;-68
2023/06/07 04:10:31;;;;;;;15.57;5.47;;;;;;;-146.27;84.72;82840.22;5027935;28;20077;-67
2023/06/07 04:12:56;;;;;;;17.50;6.00;;;;;;;-146.27;84.81;82773.91;5016881;28;20078;-67
2023/06/07 04:15:21;;;;;;;20.45;5.53;;;;;;;-146.27;84.83;82822.13;5030680;28;20029;-68
2023/06/07 04:17:47;;;;;;;10.43;5.35;;;;;;;-146.27;85.00;82781.94;5032048;28;20036;-68
2023/06/07 04:20:14;;;;;;;16.13;6.10;;;;;;;-146.27;84.44;82806.06;5032337;28;20029;-67
2023/06/07 04:22:41;;;;;;;13.30;5.90;;;;;;;-146.27;84.67;82832.19;5030731;28;20044;-68
2023/06/07 04:25:07;;;;;;;11.65;5.22;;;;;;;-146.27;84.44;82826.16;5026763;28;20022;-68
2023/06/07 04:27:34;;;;;;;15.85;6.35;;;;;;;-146.27;84.43;82806.06;5030220;28;20037;-68
2023/06/07 04:30:02;;;;;;;10.25;5.15;;;;;;;-146.27;85.52;82810.06;5031430;28;20044;-67
2023/06/07 04:32:28;;;;;;;16.17;5.75;;;;;;;-146.27;84.38;82812.09;5023982;28;20053;-67
2023/06/07 04:34:55;;;;;;;17.08;5.35;;;;;;;-146.27;84.29;82802.03;5023982;28;20099;-68
2023/06/07 04:37:20;;;;;;;11.18;5.05;;;;;;;-146.27;84.11;82834.19;5024752;28;20513;-68
2023/06/07 04:39:49;;;;;;;13.38;5.03;;;;;;;-146.27;83.72;82783.97;5015131;28;20104;-71
2023/06/07 04:42:16;;;;;;;14.05;5.25;;;;;;;-146.27;84.07;82850.25;5020094;28;20452;-70
2023/06/07 04:44:42;;;;;;;13.88;5.25;;;;;;;-146.27;84.47;82838.19;5023928;28;20060;-70
2023/06/07 04:47:09;;;;;;;16.30;5.07;;;;;;;-146.27;84.61;82789.97;5021798;28;20033;-70
2023/06/07 04:49:35;;;;;;;21.30;4.03;;;;;;;-146.27;83.50;82856.28;5024123;28;20315;-70
2023/06/07 04:52:01;;;;;;;20.75;5.28;;;;;;;-146.27;82.55;82812.09;5017928;28;20029;-72
2023/06/07 04:54:28;;;;;;;14.02;4.68;;;;;;;-146.27;83.58;82806.06;5029058;28;20028;-72
2023/06/07 04:56:53;;;;;;;10.25;4.60;;;;;;;-146.27;83.07;82796.00;5029828;28;20083;-71
2023/06/07 04:59:18;;;;;;;13.85;3.97;;;;;;;-146.27;83.23;82822.13;5029331;28;20033;-70
2023/06/07 05:01:44;;;;;;;11.70;4.68;;;;;;;-146.27;82.62;82806.06;5029216;28;20037;-71
2023/06/07 05:04:10;;;;;;;11.15;4.38;;;;;;;-146.27;82.60;82792.00;5027774;28;20028;-72
2023/06/07 05:06:36;;;;;;;12.15;4.30;;;;;;;-146.27;82.44;82832.19;5028817;28;20079;-72
2023/06/07 05:09:03;;;;;;;16.60;4.07;;;;;;;-146.27;82.90;82814.09;5029350;28;20049;-73
2023/06/07 05:11:29;;;;;;;15.02;4.43;;;;;;;-146.27;82.56;82806.06;5026115;28;20086;-72
2023/06/07 05:13:55;;;;;;;15.10;5.05;;;;;;;-146.27;82.22;82765.88;5024709;28;20517;-72
2023/06/07 05:16:20;;;;;;;13.98;4.28;;;;;;;-146.27;81.99;82796.00;5023951;28;20030;-72
2023/06/07 05:18:46;;;;;;;12.45;4.60;;;;;;;-146.27;82.47;82769.91;5026282;28;20025;-72
2023/06/07 05:21:13;;;;;;;8.75;3.72;;;;;;;-146.27;81.80;82792.00;5026811;28;20036;-71
2023/06/07 05:23:40;;;;;;;12.38;4.40;;;;;;;-146.27;81.89;82773.91;5030050;28;20018;-71
2023/06/07 05:26:05;;;;;;;10.40;3.72;;;;;;;-146.27;82.38;82796.00;5030177;28;20021;-72
2023/06/07 05:28:31;;;;;;;15.25;3.72;;;;;;;-146.27;82.10;82769.91;5030762;28;20482;-71
2023/06/07 05:30:56;;;;;;;14.20;4.60;;;;;;;-146.27;81.90;82753.81;5017815;28;20029;-72
2023/06/07 05:33:22;;;;;;;11.93;4.72;;;;;;;-146.27;81.95;82729.72;5016910;28;20128;-72
2023/06/07 05:35:47;;;;;;;8.90;3.90;;;;;;;-146.27;81.92;82761.84;5026293;28;20039;-71
2023/06/07 05:38:13;;;;;;;19.38;4.90;;;;;;;-146.27;83.17;82751.81;5022431;28;20030;-71
2023/06/07 05:40:38;;;;;;;18.10;4.78;;;;;;;-146.27;82.11;82741.78;5030601;28;20104;-71
2023/06/07 05:43:04;;;;;;;12.40;3.33;;;;;;;-146.27;81.81;82721.69;5028845;28;20022;-71
2023/06/07 05:45:30;;;;;;;13.02;4.63;;;;;;;-146.27;81.11;82717.66;5031009;28;20104;-71
2023/06/07 05:47:55;;;;;;;10.93;3.63;;;;;;;-146.27;81.00;82717.66;5028422;28;20150;-71
2023/06/07 05:50:21;;;;;;;13.23;4.00;;;;;;;-146.27;80.43;82679.50;5029982;28;20095;-72
2023/06/07 05:52:51;;;;;;;14.63;3.90;;;;;;;-146.27;80.98;82685.50;5029729;28;20045;-71
2023/06/07 05:55:16;;;;;;;18.52;4.30;;;;;;;-146.27;81.19;82715.66;5024998;28;20056;-72
2023/06/07 05:57:43;;;;;;;15.60;4.28;;;;;;;-146.27;80.96;82661.41;5014319;28;21099;-71
2023/06/07 06:00:11;;;;;;;7.93;3.65;;;;;;;-146.27;80.88;82661.41;5026218;28;20115;-70
2023/06/07 06:02:37;;;;;;;11.98;3.40;;;;;;;-146.27;80.35;82677.47;5023818;28;20211;-72
2023/06/07 06:05:06;;;;;;;10.65;3.58;;;;;;;-146.27;80.03;82643.31;5028837;28;20759;-72
2023/06/07 06:07:31;;;;;;;13.90;4.13;;;;;;;-146.27;79.23;82601.16;5026502;28;20041;-72
2023/06/07 06:09:57;;;;;;;9.48;3.78;;;;;;;-146.27;79.96;82631.28;5017174;28;20057;-72
2023/06/07 06:12:22;;;;;;;12.65;3.28;;;;;;;-146.27;79.72;82647.34;5028733;28;20057;-72
2023/06/07 06:14:48;;;;;;;13.48;4.32;;;;;;;-146.27;79.48;82645.34;5033043;28;20026;-72
2023/06/07 06:17:13;;;;;;;10.63;3.80;;;;;;;-146.27;79.75;82657.41;5033474;28;20056;-72
2023/06/07 06:19:39;;;;;;;9.70;3.63;;;;;;;-146.27;79.13;82659.41;5033464;28;20025;-72
2023/06/07 06:22:04;;;;;;;10.77;4.15;;;;;;;-146.27;79.70;82641.31;5031414;28;20124;-73
2023/06/07 06:24:30;;;;;;;11.82;3.28;;;;;;;-146.27;79.48;82645.34;5032323;28;20044;-72
2023/06/07 06:26:55;;;;;;;14.55;3.85;;;;;;;-146.27;79.97;82649.34;5032846;28;20083;-72
2023/06/07 06:29:21;;;;;;;15.95;4.18;;;;;;;-146.27;80.07;82679.50;5032845;28;20041;-72
2023/06/07 06:31:47;;;;;;;13.15;3.65;;;;;;;-146.27;79.73;82653.38;5029479;28;20029;-72
2023/06/07 06:34:13;;;;;;;13.85;3.78;;;;;;;-146.27;79.52;82669.44;5029373;28;20037;-74
2023/06/07 06:36:38;;;;;;;8.85;3.78;;;;;;;-146.27;80.49;82633.28;5032481;28;20036;-71
2023/06/07 06:39:04;;;;;;;11.10;3.95;;;;;;;-146.27;80.48;82625.25;5030748;28;20397;-72
2023/06/07 06:41:30;;;;;;;12.00;3.53;;;;;;;-146.27;79.88;82605.16;5032340;28;20025;-72
2023/06/07 06:43:57;;;;;;;16.55;3.50;;;;;;;-146.27;79.90;82625.25;5032397;28;20031;-72
2023/06/07 06:46:22;;;;;;;6.80;3.13;;;;;;;-146.27;79.32;82564.97;5032329;28;20477;-73
2023/06/07 06:48:47;;;;;;;13.05;4.60;;;;;;;-146.27;79.34;82512.75;5019930;28;20031;-73
2023/06/07 06:51:13;;;;;;;14.50;4.70;;;;;;;-146.27;78.78;82508.72;5027626;28;20032;-70
2023/06/07 06:53:38;;;;;;;6.82;3.40;;;;;;;-146.27;78.86;82492.66;5031238;28;20108;-69
2023/06/07 06:56:06;;;;;;;9.85;3.55;;;;;;;-146.27;77.50;82442.44;5032514;28;20036;-71
2023/06/07 06:58:34;;;;;;;15.48;3.83;;;;;;;-146.27;77.13;82462.53;5029806;28;20489;-69
2023/06/07 07:01:02;;;;;;;18.55;3.97;;;;;;;-146.27;77.45;82450.47;5028710;28;20525;-70
2023/06/07 07:03:28;;;;;;;15.38;3.97;;;;;;;-146.27;76.69;82430.38;5032360;28;20021;-69
2023/06/07 07:05:53;;;;;;;15.80;4.15;;;;;;;-146.27;77.08;82438.44;5031276;28;20053;-68
2023/06/07 07:08:19;;;;;;;14.43;4.35;;;;;;;-146.27;77.38;82422.34;5030014;28;20025;-68
2023/06/07 07:10:46;;;;;;;13.45;3.65;;;;;;;-146.27;77.22;82428.38;5031021;28;20049;-69
2023/06/07 07:13:11;;;;;;;8.38;3.88;;;;;;;-146.27;77.01;82368.13;5030785;28;20030;-68
2023/06/07 07:15:37;;;;;;;11.15;3.08;;;;;;;-146.27;77.42;82400.25;5030350;28;20025;-66
2023/06/07 07:18:02;;;;;;;18.92;4.20;;;;;;;-146.27;75.88;82380.16;5026048;28;20037;-67
2023/06/07 07:20:28;;;;;;;16.48;4.78;;;;;;;-146.27;76.52;82368.13;5029455;28;20036;-68
2023/06/07 07:22:55;;;;;;;12.60;3.78;;;;;;;-146.27;77.42;82382.19;5027834;28;20025;-68
2023/06/07 07:25:20;;;;;;;13.13;5.05;;;;;;;-146.27;77.42;82366.09;5019285;28;20501;-69
2023/06/07 07:27:46;;;;;;;20.52;4.25;;;;;;;-146.27;77.48;82344.00;5012713;28;20026;-69
2023/06/07 07:30:11;;;;;;;13.55;4.40;;;;;;;-146.27;76.99;82311.88;5031646;28;20033;-70
2023/06/07 07:32:36;;;;;;;11.93;3.88;;;;;;;-146.27;76.25;82291.78;5027601;28;20064;-70
2023/06/07 07:35:02;;;;;;;9.82;3.85;;;;;;;-146.27;76.08;82293.78;5032293;28;20503;-71
2023/06/07 07:37:28;;;;;;;11.35;3.80;;;;;;;-146.27;75.46;82285.75;5031273;28;20033;-70
2023/06/07 07:39:54;;;;;;;14.13;3.80;;;;;;;-146.27;75.73;82241.56;5031039;28;20037;-68
2023/06/07 07:42:20;;;;;;;13.10;4.03;;;;;;;-146.27;76.08;82251.59;5032001;28;20451;-67
2023/06/07 07:44:45;;;;;;;18.58;4.40;;;;;;;-146.27;75.00;82257.63;5025506;28;20113;-67
2023/06/07 07:47:11;;;;;;;11.38;3.92;;;;;;;-146.27;74.87;82315.88;5015590;28;20171;-68
2023/06/07 07:49:37;;;;;;;11.52;3.35;;;;;;;-146.27;73.86;82263.66;5020568;28;20045;-68
2023/06/07 07:52:02;;;;;;;9.80;3.65;;;;;;;-146.27;74.85;82227.50;5026427;28;20065;-71
2023/06/07 07:54:29;;;;;;;12.25;3.90;;;;;;;-146.27;74.73;82225.50;5012054;28;20666;-70
2023/06/07 07:56:56;;;;;;;14.57;3.10;;;;;;;-146.27;74.43;82239.56;5012266;28;20022;-68
2023/06/07 07:59:21;;;;;;;16.52;4.15;;;;;;;-146.27;74.99;82217.47;5016761;28;20029;-71
2023/06/07 08:01:49;;;;;;;8.52;3.70;;;;;;;-146.27;75.18;82173.28;5027713;28;20060;-70
2023/06/07 08:04:14;;;;;;;14.52;3.80;;;;;;;-146.27;75.50;82084.88;5031121;28;20497;-69
2023/06/07 08:06:40;;;;;;;14.93;3.80;;;;;;;-146.27;73.38;82070.81;5028290;28;20030;-68
2023/06/07 08:09:05;;;;;;;11.00;3.42;;;;;;;-146.27;72.82;82026.63;5027840;28;20076;-69
2023/06/07 08:11:31;;;;;;;14.27;3.75;;;;;;;-146.27;73.34;82010.56;5031381;28;20033;-72
2023/06/07 08:13:57;;;;;;;17.42;3.33;;;;;;;-146.27;72.60;81954.31;5048738;28;20099;-71
2023/06/07 08:16:22;;;;;;;14.57;4.00;;;;;;;-146.27;71.11;81970.41;5039170;28;20033;-70
2023/06/07 08:18:55;;;;;;;13.60;4.00;;;;;;;-146.27;71.87;81922.19;5026581;28;20022;-69
2023/06/07 08:21:21;;;;;;;16.00;3.73;;;;;;;-146.27;71.58;81859.94;5025146;28;20112;-71
2023/06/07 08:23:46;;;;;;;13.15;4.03;;;;;;;-146.27;70.81;81837.81;5029286;28;20112;-69
2023/06/07 08:26:11;;;;;;;12.27;3.67;;;;;;;-146.27;69.71;81829.78;5029061;28;20448;-69
2023/06/07 08:28:37;;;;;;;12.30;3.78;;;;;;;-146.27;69.29;81845.88;5031133;28;20040;-69
2023/06/07 08:31:03;;;;;;;15.20;4.50;;;;;;;-146.27;68.45;81789.63;5030130;28;20139;-71
2023/06/07 08:33:29;;;;;;;7.82;4.20;;;;;;;-146.27;68.69;81811.72;5030105;28;20078;-71
2023/06/07 08:35:55;;;;;;;13.80;3.92;;;;;;;-146.27;68.74;81797.66;5030859;28;20252;-70
2023/06/07 08:38:20;;;;;;;13.35;4.05;;;;;;;-146.27;68.30;81815.72;5029680;28;20022;-70
2023/06/07 08:40:45;;;;;;;19.85;3.75;;;;;;;-146.27;68.62;81777.56;5030767;28;20534;-70
2023/06/07 08:43:11;;;;;;;10.50;3.42;;;;;;;-146.27;68.27;81761.50;5029961;28;20450;-70
2023/06/07 08:45:36;;;;;;;11.52;4.40;;;;;;;-146.27;68.04;81737.41;5029992;28;20033;-70
2023/06/07 08:48:06;;;;;;;12.02;4.35;;;;;;;-146.27;67.58;81653.06;5029414;28;20094;-70
2023/06/07 08:50:33;;;;;;;11.15;4.30;;;;;;;-146.27;66.82;81713.31;5030095;28;20104;-70
2023/06/07 08:53:05;;;;;;;16.40;3.65;;;;;;;-146.27;65.11;81745.44;5029193;28;20470;-70
2023/06/07 08:55:33;;;;;;;8.63;3.92;;;;;;;-146.27;66.13;81669.13;5026146;28;20422;-70
2023/06/07 08:57:59;;;;;;;10.00;4.20;;;;;;;-146.27;65.30;81711.28;5028680;28;20037;-70
2023/06/07 09:00:25;;;;;;;11.02;3.72;;;;;;;-146.27;66.01;81697.22;5030662;28;20033;-69
2023/06/07 09:02:52;;;;;;;12.95;4.03;;;;;;;-146.27;65.64;81649.03;5029867;28;20022;-69
2023/06/07 09:05:22;;;;;;;11.40;4.00;;;;;;;-146.27;65.98;81636.97;5025845;28;20029;-69
2023/06/07 09:07:48;;;;;;;11.07;3.72;;;;;;;-146.27;64.71;81592.78;5030712;28;20470;-69
2023/06/07 09:10:17;;;;;;;11.40;4.72;;;;;;;-146.27;65.55;81576.72;5028245;28;20041;-68
2023/06/07 09:12:45;;;;;;;13.50;4.10;;;;;;;-146.27;65.26;81550.63;5029384;28;20041;-71
2023/06/07 09:15:20;;;;;;;13.32;3.55;;;;;;;-146.27;64.04;81516.47;5030650;28;20045;-70
2023/06/07 09:17:59;;;;;;;11.88;4.57;;;;;;;-146.27;63.80;81496.41;5029643;28;20708;-69
2023/06/07 09:20:27;;;;;;;8.32;3.72;;;;;;;-146.27;63.65;81438.16;5026794;28;20044;-69
2023/06/07 09:23:08;;;;;;;17.42;5.20;;;;;;;-146.27;64.32;81476.31;5030558;28;20321;-70
2023/06/07 09:25:35;;;;;;;15.75;4.00;;;;;;;-146.27;64.79;81412.03;5024989;28;20030;-70
2023/06/07 09:28:08;;;;;;;10.07;4.13;;;;;;;-146.27;64.98;81442.16;5030327;28;20018;-69
2023/06/07 09:30:33;;;;;;;16.55;4.53;;;;;;;-146.27;63.04;81331.72;5030440;28;20040;-68
2023/06/07 09:32:58;;;;;;;12.40;4.07;;;;;;;-146.27;62.37;81313.63;5029275;28;20033;-71
2023/06/07 09:35:25;;;;;;;10.52;4.13;;;;;;;-146.27;63.00;81341.75;5030002;28;20109;-70
2023/06/07 09:37:55;;;;;;;11.82;4.10;;;;;;;-146.27;62.87;81271.47;5027645;28;20033;-70
2023/06/07 09:40:22;;;;;;;12.32;4.00;;;;;;;-146.27;62.11;81241.34;5014502;28;20038;-69
2023/06/07 09:42:58;;;;;;;13.75;4.10;;;;;;;-146.27;58.89;81307.63;5030102;28;20088;-71
2023/06/07 09:45:25;;;;;;;11.52;3.58;;;;;;;-146.27;60.79;81181.09;5029945;28;20116;-70
2023/06/07 09:48:01;;;;;;;12.70;4.43;;;;;;;-146.27;60.59;81152.97;5029331;28;20025;-70
2023/06/07 09:50:27;;;;;;;16.80;4.00;;;;;;;-146.27;59.64;81159.00;5028194;28;20025;-69
2023/06/07 09:52:57;;;;;;;12.20;4.25;;;;;;;-146.27;60.05;81159.00;5029955;28;20036;-71
2023/06/07 09:55:27;;;;;;;12.50;4.43;;;;;;;-146.27;58.80;81094.75;5029111;28;20373;-71
2023/06/07 09:57:53;;;;;;;12.90;4.10;;;;;;;-146.27;58.11;81052.56;5022332;28;20447;-70
2023/06/07 10:00:19;;;;;;;11.80;4.13;;;;;;;-146.27;60.72;80962.22;5027101;28;20033;-70
2023/06/07 10:02:46;;;;;;;12.32;4.55;;;;;;;-146.27;57.45;80958.19;5026165;28;20458;-70
2023/06/07 10:05:13;;;;;;;13.50;4.65;;;;;;;-146.27;57.20;80956.19;5027671;28;20029;-71
2023/06/07 10:07:44;;;;;;;20.02;4.70;;;;;;;-146.27;54.93;80946.13;5029180;28;20025;-70
2023/06/07 10:10:11;;;;;;;13.35;4.28;;;;;;;-146.27;57.07;80918.03;5027337;28;20380;-71
2023/06/07 10:12:40;;;;;;;16.45;4.30;;;;;;;-146.27;56.88;80887.91;5028646;28;20437;-70
2023/06/07 10:15:09;;;;;;;9.05;3.90;;;;;;;-146.27;55.98;80781.47;5028980;28;20034;-70
2023/06/07 10:17:59;;;;;;;11.07;4.18;;;;;;;-146.27;54.36;80813.59;5029663;28;20045;-70
2023/06/07 10:20:30;;;;;;;11.50;4.10;;;;;;;-146.27;53.26;80757.38;5027738;28;20113;-71
2023/06/07 10:23:02;;;;;;;11.68;4.57;;;;;;;-146.27;55.59;80701.16;5028116;28;20052;-70
2023/06/07 10:25:32;;;;;;;12.20;4.07;;;;;;;-146.27;52.19;80711.19;5028211;28;20028;-71
2023/06/07 10:28:15;;;;;;;14.48;4.20;;;;;;;-146.27;54.95;80667.03;5028743;28;20038;-71
2023/06/07 10:30:44;;;;;;;;;;;;;;;-146.27;52.70;80654.97;5029324;28;20034;-70
2023/06/07 10:33:10;;;;;;;12.38;3.92;;;;;;;-146.27;52.81;80606.78;5028426;28;19917;-71
2023/06/07 10:35:38;;;;;;;14.45;4.35;;;;;;;-146.27;51.19;80576.66;5028376;28;20075;-70
2023/06/07 10:38:03;;;;;;;9.90;3.95;;;;;;;-146.27;50.13;80546.56;5028996;28;20026;-71
2023/06/07 10:40:31;;;;;;;13.13;5.25;;;;;;;-146.27;49.68;80492.34;5029424;28;20072;-69
2023/06/07 10:42:57;;;;;;;9.88;4.65;;;;;;;-146.27;51.74;80371.88;5029870;28;20029;-71
2023/06/07 10:45:23;;;;;;;14.77;4.25;;;;;;;-146.27;49.26;80512.41;5029570;28;20473;-69
2023/06/07 10:47:48;;;;;;;12.70;4.13;;;;;;;-146.27;47.43;80428.09;5028610;28;20041;-69
2023/06/07 10:50:47;;;;;;;14.07;3.85;;;;;;;-146.27;48.84;80343.75;5028151;28;20562;-70
2023/06/07 10:53:12;;;;;;;12.40;4.07;;;;;;;-146.27;51.56;80329.72;5022442;28;20429;-68
2023/06/07 10:55:37;;;;;;;12.80;4.05;;;;;;;-146.27;48.02;80281.53;5024632;28;20033;-72
2023/06/07 10:58:27;;;;;;;12.70;4.13;;;;;;;-146.27;48.11;80217.28;5018805;28;20071;-73
2023/06/07 11:00:54;;;;;;;9.00;3.85;;;;;;;-146.27;49.41;80151.03;5029743;28;20461;-70
2023/06/07 11:03:22;;;;;;;15.00;4.47;;;;;;;-146.27;47.15;80211.25;5029799;28;20025;-71
2023/06/07 11:06:05;;;;;;;12.52;3.97;;;;;;;-146.27;47.25;80058.66;5022189;28;20026;-71
2023/06/07 11:08:36;;;;;;;14.05;3.92;;;;;;;-146.27;47.87;80066.69;5027809;28;20035;-70